Time;durP1;ratioP1;P1;durP2;ratioP2;P2;SDS_P1;SDS_P2;PMS_P1;PMS_P2;Temp;Humidity;BMP_temperature;BMP_pressure;BME280_temperature;BME280_humidity;BME280_pressure;Samples;Min_cycle;Max_cycle;Signal;HPM_P1;HPM_P2
2023/08/22 00:00:14;;;;;;;10.05;6.35;;;;;;;;;;5060831;28;20552;-75
2023/08/22 00:02:40;;;;;;;12.45;6.90;;;;;;;;;;5071189;28;20036;-75
2023/08/22 00:05:07;;;;;;;15.50;6.78;;;19.80;99.90;;;;;;5076773;28;20177;-75
2023/08/22 00:07:33;;;;;;;12.73;6.85;;;20.20;99.90;;;;;;5090652;28;20035;-75
2023/08/22 00:09:59;;;;;;;14.05;6.70;;;;;;;;;;5093364;28;20041;-75
2023/08/22 00:12:25;;;;;;;12.85;6.50;;;20.20;99.90;;;;;;5075298;28;20391;-75
2023/08/22 00:14:51;;;;;;;7.78;5.85;;;;;;;;;;5093007;28;20054;-76
2023/08/22 00:17:17;;;;;;;15.02;7.15;;;18.80;99.90;;;;;;5086048;28;20506;-75
2023/08/22 00:19:44;;;;;;;13.00;6.93;;;18.60;99.90;;;;;;5093363;28;20039;-76
2023/08/22 00:22:11;;;;;;;13.27;6.10;;;20.20;99.90;;;;;;5086763;28;20040;-75
2023/08/22 00:24:38;;;;;;;14.32;6.95;;;;;;;;;;5075134;28;20503;-76
2023/08/22 00:27:04;;;;;;;11.85;6.45;;;20.10;99.90;;;;;;5061493;28;20177;-75
2023/08/22 00:29:30;;;;;;;10.05;6.10;;;18.20;99.90;;;;;;5059875;28;20028;-75
2023/08/22 00:31:58;;;;;;;13.00;6.40;;;19.10;99.90;;;;;;5092560;28;20399;-75
2023/08/22 00:34:24;;;;;;;14.27;6.32;;;19.40;99.90;;;;;;5058365;28;20028;-75
2023/08/22 00:36:49;;;;;;;12.27;6.57;;;19.10;99.90;;;;;;5060993;28;20476;-75
2023/08/22 00:39:15;;;;;;;13.10;6.63;;;19.10;99.90;;;;;;5060506;28;20036;-75
2023/08/22 00:41:42;;;;;;;10.95;6.45;;;20.10;99.90;;;;;;5062994;28;20043;-75
2023/08/22 00:44:08;;;;;;;14.15;6.68;;;19.70;99.90;;;;;;5092531;28;20062;-76
2023/08/22 00:46:34;;;;;;;13.68;6.22;;;18.80;99.90;;;;;;5075904;28;20479;-75
2023/08/22 00:49:01;;;;;;;17.42;6.78;;;;;;;;;;5075970;28;20039;-75
2023/08/22 00:51:26;;;;;;;12.63;6.22;;;19.70;99.90;;;;;;5059436;28;20036;-75
2023/08/22 00:53:52;;;;;;;15.25;6.28;;;17.80;99.90;;;;;;5090394;28;20475;-75
2023/08/22 00:56:18;;;;;;;13.52;6.70;;;;;;;;;;5092995;28;20367;-75
2023/08/22 00:58:45;;;;;;;14.15;5.80;;;18.40;99.90;;;;;;5080571;28;20063;-75
2023/08/22 01:01:11;;;;;;;12.75;5.80;;;;;;;;;;5075952;28;20475;-75
2023/08/22 01:03:37;;;;;;;15.73;6.15;;;17.80;99.90;;;;;;5077213;28;20028;-75
2023/08/22 01:06:14;;;;;;;12.05;6.10;;;19.00;99.90;;;;;;5076658;28;20533;-75
2023/08/22 01:08:46;;;;;;;17.42;6.38;;;19.70;99.90;;;;;;5080717;28;20044;-75
2023/08/22 01:11:22;;;;;;;15.15;6.25;;;18.60;99.90;;;;;;5085881;28;20085;-75
2023/08/22 01:13:51;;;;;;;17.75;7.28;;;19.10;99.90;;;;;;5070650;28;20040;-77
2023/08/22 01:16:18;;;;;;;10.07;6.38;;;19.80;99.90;;;;;;5076061;28;20130;-77
2023/08/22 01:18:45;;;;;;;12.38;6.60;;;18.90;99.90;;;;;;5088329;28;20047;-77
2023/08/22 01:21:21;;;;;;;15.43;7.45;;;19.00;99.90;;;;;;5056859;28;20039;-78
2023/08/22 01:23:47;;;;;;;15.38;7.72;;;17.60;99.90;;;;;;5075919;28;20039;-77
2023/08/22 01:26:14;;;;;;;12.40;7.53;;;;;;;;;;5083255;28;20040;-77
2023/08/22 01:28:44;;;;;;;15.00;7.45;;;19.00;99.90;;;;;;5086879;28;20497;-77
2023/08/22 01:31:36;;;;;;;14.52;6.72;;;19.80;99.90;;;;;;5079566;28;20178;-77
2023/08/22 01:34:25;;;;;;;11.07;6.78;;;19.10;99.90;;;;;;5075955;28;20062;-77
2023/08/22 01:36:56;;;;;;;13.27;7.18;;;19.80;99.90;;;;;;5074082;28;20040;-77
2023/08/22 01:39:27;;;;;;;16.10;7.57;;;18.80;99.90;;;;;;5075970;28;20083;-77
2023/08/22 01:41:55;;;;;;;17.67;8.00;;;18.40;99.90;;;;;;5090143;28;20082;-77
2023/08/22 01:44:21;;;;;;;17.23;7.45;;;17.70;99.90;;;;;;5070372;28;20039;-78
2023/08/22 01:46:47;;;;;;;18.05;7.78;;;;;;;;;;5094680;28;20047;-78
2023/08/22 01:49:13;;;;;;;12.38;7.38;;;;;;;;;;5077367;28;20047;-77
2023/08/22 01:51:39;;;;;;;20.05;8.02;;;17.80;99.90;;;;;;5095879;28;20031;-78
2023/08/22 01:54:05;;;;;;;14.68;7.45;;;18.60;99.90;;;;;;5094399;28;20028;-76
2023/08/22 01:56:30;;;;;;;20.08;8.85;;;17.40;99.90;;;;;;5095873;28;20046;-75
2023/08/22 01:58:56;;;;;;;16.95;8.00;;;17.20;99.90;;;;;;5095441;28;20055;-76
2023/08/22 02:01:23;;;;;;;16.88;8.05;;;;;;;;;;5071549;28;20483;-75
2023/08/22 02:03:49;;;;;;;14.60;8.07;;;18.70;99.90;;;;;;5092091;28;20040;-78
2023/08/22 02:06:14;;;;;;;16.23;8.25;;;18.90;99.90;;;;;;5078412;28;20043;-77
2023/08/22 02:08:41;;;;;;;14.65;8.35;;;;;;;;;;5068867;28;20039;-77
2023/08/22 02:11:07;;;;;;;16.25;8.60;;;;;;;;;;5081646;28;20428;-78
2023/08/22 02:13:33;;;;;;;17.45;8.50;;;;;;;;;;5069476;28;20027;-77
2023/08/22 02:16:00;;;;;;;15.90;8.75;;;18.10;99.90;;;;;;5096032;28;20341;-77
2023/08/22 02:18:26;;;;;;;19.02;8.82;;;18.40;99.90;;;;;;5095750;28;20547;-77
2023/08/22 02:20:57;;;;;;;16.38;8.30;;;18.20;99.90;;;;;;5095807;28;20047;-77
2023/08/22 02:23:23;;;;;;;15.80;8.32;;;;;;;;;;5089703;28;20051;-77
2023/08/22 02:25:49;;;;;;;17.33;8.88;;;;;;;;;;5081590;28;20036;-78
2023/08/22 02:28:15;;;;;;;16.55;9.15;;;;;;;;;;5095608;28;20483;-79
2023/08/22 02:30:41;;;;;;;16.20;9.35;;;;;;;;;;5078537;28;20048;-79
2023/08/22 02:33:07;;;;;;;19.98;9.73;;;19.10;99.90;;;;;;5061957;28;20040;-78
2023/08/22 02:35:33;;;;;;;16.38;9.15;;;19.10;99.90;;;;;;5060567;28;20039;-78
2023/08/22 02:37:59;;;;;;;18.55;8.70;;;18.00;99.90;;;;;;5082095;28;20119;-79
2023/08/22 02:40:25;;;;;;;17.90;9.20;;;;;;;;;;5093414;28;20122;-75
2023/08/22 02:42:52;;;;;;;17.50;8.43;;;17.20;99.90;;;;;;5094014;28;20040;-75
2023/08/22 02:45:18;;;;;;;21.13;9.43;;;18.20;99.90;;;;;;5094797;28;20039;-75
2023/08/22 02:47:44;;;;;;;17.23;8.65;;;;;;;;;;5076213;28;20043;-75
2023/08/22 02:50:10;;;;;;;16.20;9.43;;;17.00;99.90;;;;;;5086727;28;20040;-79
2023/08/22 02:52:36;;;;;;;19.52;9.88;;;;;;;;;;5084601;28;20476;-78
2023/08/22 02:55:03;;;;;;;15.85;8.93;;;;;;;;;;5059397;28;20038;-78
2023/08/22 02:57:28;;;;;;;15.50;8.55;;;19.10;99.90;;;;;;5093394;28;20123;-78
2023/08/22 02:59:54;;;;;;;16.55;8.35;;;18.30;99.90;;;;;;5093186;28;20142;-78
2023/08/22 03:02:20;;;;;;;16.08;9.35;;;19.30;99.90;;;;;;5093201;28;20040;-78
2023/08/22 03:04:46;;;;;;;17.48;9.50;;;;;;;;;;5078592;28;20036;-79
2023/08/22 03:07:12;;;;;;;13.52;8.43;;;17.10;99.90;;;;;;5082006;28;20122;-80
2023/08/22 03:09:39;;;;;;;15.32;8.93;;;18.00;99.90;;;;;;5094397;28;20119;-79
2023/08/22 03:12:05;;;;;;;17.33;9.07;;;;;;;;;;5076761;28;20039;-79
2023/08/22 03:14:31;;;;;;;17.98;8.63;;;18.30;99.90;;;;;;5091544;28;20036;-79
2023/08/22 03:16:57;;;;;;;18.15;9.15;;;;;;;;;;5086831;28;20046;-79
2023/08/22 03:19:23;;;;;;;18.83;8.77;;;19.00;99.90;;;;;;5094283;28;20047;-79
2023/08/22 03:21:49;;;;;;;15.35;9.13;;;;;;;;;;5086116;28;20139;-79
2023/08/22 03:24:15;;;;;;;17.25;9.32;;;18.80;99.90;;;;;;5075875;28;20175;-79
2023/08/22 03:26:41;;;;;;;18.33;9.73;;;;;;;;;;5088318;28;20067;-79
2023/08/22 03:29:07;;;;;;;17.15;9.00;;;;;;;;;;5094204;28;20031;-79
2023/08/22 03:31:33;;;;;;;21.77;9.55;;;;;;;;;;5093777;28;20114;-78
2023/08/22 03:33:59;;;;;;;19.52;9.63;;;;;;;;;;5090746;28;20116;-79
2023/08/22 03:36:25;;;;;;;22.40;9.93;;;18.30;99.90;;;;;;5092894;28;20031;-79
2023/08/22 03:38:51;;;;;;;17.90;9.88;;;;;;;;;;5077050;28;20046;-79
2023/08/22 03:41:18;;;;;;;17.63;9.80;;;17.40;99.90;;;;;;5083752;28;20546;-78
2023/08/22 03:43:43;;;;;;;20.08;10.40;;;16.60;99.90;;;;;;5075901;28;20400;-78
2023/08/22 03:46:09;;;;;;;20.98;10.07;;;16.50;99.90;;;;;;5092693;28;20483;-75
2023/08/22 03:48:35;;;;;;;21.55;9.98;;;;;;;;;;5093788;28;20502;-75
2023/08/22 03:51:07;;;;;;;17.42;9.32;;;17.80;99.90;;;;;;5072973;28;20395;-78
2023/08/22 03:53:34;;;;;;;24.17;9.70;;;17.80;99.90;;;;;;5088406;28;20042;-79
2023/08/22 03:56:00;;;;;;;16.20;9.15;;;17.00;99.90;;;;;;5059822;28;20046;-78
2023/08/22 03:58:27;;;;;;;21.42;9.90;;;;;;;;;;5085130;28;20040;-78
2023/08/22 04:01:04;;;;;;;16.23;9.57;;;17.90;99.90;;;;;;5076695;28;20043;-78
2023/08/22 04:03:30;;;;;;;22.52;9.52;;;18.70;99.90;;;;;;5087450;28;20040;-78
2023/08/22 04:05:58;;;;;;;19.63;10.02;;;;;;;;;;5072946;28;20027;-78
2023/08/22 04:08:24;;;;;;;19.13;9.35;;;16.30;99.90;;;;;;5084723;28;20035;-78
2023/08/22 04:10:50;;;;;;;15.45;9.02;;;;;;;;;;5093747;28;20085;-78
2023/08/22 04:13:16;;;;;;;19.45;9.27;;;16.40;99.90;;;;;;5077442;28;20479;-78
2023/08/22 04:15:41;;;;;;;19.23;9.60;;;18.00;99.90;;;;;;5089487;28;20043;-79
2023/08/22 04:18:07;;;;;;;20.95;9.80;;;;;;;;;;5060431;28;20035;-79
2023/08/22 04:20:33;;;;;;;19.45;9.73;;;;;;;;;;5062826;28;21387;-79
2023/08/22 04:22:59;;;;;;;19.98;10.57;;;16.30;99.90;;;;;;5078804;28;20041;-74
2023/08/22 04:25:25;;;;;;;24.58;9.75;;;;;;;;;;5075877;28;20110;-74
2023/08/22 04:27:51;;;;;;;23.27;10.05;;;;;;;;;;5076241;28;20046;-74
2023/08/22 04:30:17;;;;;;;15.77;9.15;;;;;;;;;;5076361;28;20082;-74
2023/08/22 04:32:44;;;;;;;17.52;8.65;;;17.60;99.90;;;;;;5074654;28;20033;-74
2023/08/22 04:35:10;;;;;;;16.13;9.98;;;;;;;;;;5060279;28;20080;-74
2023/08/22 04:37:36;;;;;;;16.15;9.95;;;;;;;;;;5076973;28;20043;-74
2023/08/22 04:40:03;;;;;;;19.42;9.98;;;18.10;99.90;;;;;;5075382;28;20399;-74
2023/08/22 04:42:29;;;;;;;18.80;10.05;;;16.30;99.90;;;;;;5060910;28;20093;-74
2023/08/22 04:44:55;;;;;;;17.80;9.52;;;;;;;;;;5079861;28;20032;-74
2023/08/22 04:47:21;;;;;;;16.77;9.20;;;;;;;;;;5072922;28;20032;-74
2023/08/22 04:49:48;;;;;;;16.27;10.13;;;;;;;;;;5075275;28;20404;-73
2023/08/22 04:52:13;;;;;;;17.40;9.70;;;17.20;99.90;;;;;;5058200;28;20039;-73
2023/08/22 04:54:39;;;;;;;19.73;10.15;;;17.00;99.90;;;;;;5092792;28;20039;-78
2023/08/22 04:57:05;;;;;;;22.23;11.10;;;16.20;99.90;;;;;;5075907;28;20043;-78
2023/08/22 04:59:31;;;;;;;22.60;11.40;;;;;;;;;;5060579;28;20112;-79
2023/08/22 05:01:57;;;;;;;26.98;11.55;;;16.90;99.90;;;;;;5077571;28;20032;-79
2023/08/22 05:04:23;;;;;;;23.90;10.98;;;;;;;;;;5075459;28;20080;-79
2023/08/22 05:06:49;;;;;;;19.10;9.65;;;;;;;;;;5092674;28;20150;-78
2023/08/22 05:09:16;;;;;;;20.40;10.45;;;18.50;99.90;;;;;;5092720;28;20101;-75
2023/08/22 05:11:42;;;;;;;22.88;9.95;;;17.50;99.90;;;;;;5088357;28;20038;-78
2023/08/22 05:14:09;;;;;;;17.85;10.82;;;;;;;;;;5076185;28;20115;-78
2023/08/22 05:16:35;;;;;;;25.70;10.82;;;18.40;99.90;;;;;;5058351;28;20047;-76
2023/08/22 05:19:01;;;;;;;12.88;9.23;;;16.90;99.90;;;;;;5066531;28;20095;-77
2023/08/22 05:21:27;;;;;;;20.42;10.60;;;;;;;;;;5079823;28;20055;-75
2023/08/22 05:23:53;;;;;;;22.80;11.77;;;18.70;99.90;;;;;;5088067;28;20056;-77
2023/08/22 05:26:19;;;;;;;24.58;11.68;;;;;;;;;;5079056;28;20549;-76
2023/08/22 05:28:44;;;;;;;22.38;11.18;;;16.50;99.90;;;;;;5078270;28;20036;-76
2023/08/22 05:31:22;;;;;;;18.85;10.75;;;17.70;99.90;;;;;;5050231;28;20036;-75
2023/08/22 05:33:47;;;;;;;23.77;12.00;;;18.50;99.90;;;;;;5077224;28;20027;-77
2023/08/22 05:36:14;;;;;;;27.33;11.68;;;17.90;99.90;;;;;;5063660;28;20040;-75
2023/08/22 05:38:39;;;;;;;16.85;10.52;;;18.40;99.90;;;;;;5079615;28;20425;-75
2023/08/22 05:41:05;;;;;;;19.83;10.65;;;19.00;99.90;;;;;;5061993;28;20138;-75
2023/08/22 05:43:31;;;;;;;23.75;11.70;;;;;;;;;;5074052;28;20050;-75
2023/08/22 05:45:57;;;;;;;24.08;11.05;;;17.60;99.90;;;;;;5079282;28;20120;-75
2023/08/22 05:48:23;;;;;;;17.83;11.50;;;18.10;99.90;;;;;;5095056;28;20071;-76
2023/08/22 05:50:50;;;;;;;18.92;11.07;;;18.70;99.90;;;;;;5079186;28;20116;-76
2023/08/22 05:53:16;;;;;;;23.15;11.15;;;18.10;99.90;;;;;;5075095;28;20038;-75
2023/08/22 05:55:42;;;;;;;22.98;10.52;;;;;;;;;;5078962;28;20027;-76
2023/08/22 05:58:08;;;;;;;30.08;11.68;;;18.20;99.90;;;;;;5072013;28;20039;-76
2023/08/22 06:00:34;;;;;;;16.23;10.43;;;18.30;99.90;;;;;;5060346;28;20062;-76
2023/08/22 06:03:00;;;;;;;21.02;11.35;;;17.30;99.90;;;;;;5088656;28;20075;-78
2023/08/22 06:05:26;;;;;;;18.02;11.02;;;;;;;;;;5085570;28;20087;-78
2023/08/22 06:07:53;;;;;;;25.90;12.05;;;18.20;99.90;;;;;;5073769;28;20052;-77
2023/08/22 06:10:19;;;;;;;19.58;11.18;;;;;;;;;;5089502;28;20040;-78
2023/08/22 06:12:45;;;;;;;22.00;10.88;;;17.20;99.90;;;;;;5092369;27;20032;-78
2023/08/22 06:15:11;;;;;;;21.42;10.90;;;;;;;;;;5083192;28;20036;-78
2023/08/22 06:17:37;;;;;;;22.08;11.88;;;18.60;99.90;;;;;;5089416;28;20039;-78
2023/08/22 06:20:04;;;;;;;24.95;11.60;;;;;;;;;;5075236;28;20415;-78
2023/08/22 06:22:30;;;;;;;19.05;11.07;;;17.10;99.90;;;;;;5070768;28;20039;-79
2023/08/22 06:24:55;;;;;;;18.27;10.40;;;19.10;99.90;;;;;;5055377;28;20043;-79
2023/08/22 06:27:21;;;;;;;23.38;11.38;;;;;;;;;;5072556;28;20040;-73
2023/08/22 06:29:48;;;;;;;22.33;12.10;;;;;;;;;;5083349;28;20081;-72
2023/08/22 06:32:13;;;;;;;25.05;10.43;;;18.70;99.90;;;;;;5088436;28;20035;-73
2023/08/22 06:34:39;;;;;;;20.90;11.13;;;;;;;;;;5089688;28;20046;-73
2023/08/22 06:37:06;;;;;;;22.27;11.52;;;17.60;99.90;;;;;;5070068;28;20068;-73
2023/08/22 06:39:33;;;;;;;22.20;11.18;;;17.90;99.90;;;;;;5076438;28;20040;-73
2023/08/22 06:41:58;;;;;;;27.67;11.30;;;17.70;99.90;;;;;;5088872;28;20118;-73
2023/08/22 06:44:24;;;;;;;20.83;9.90;;;19.60;99.90;;;;;;5067519;28;20169;-73
2023/08/22 06:46:50;;;;;;;19.20;10.65;;;18.70;99.90;;;;;;5052687;28;20036;-73
2023/08/22 06:49:16;;;;;;;21.75;10.55;;;;;;;;;;5087691;28;20031;-73
2023/08/22 06:51:42;;;;;;;24.02;10.30;;;19.60;99.90;;;;;;5086762;28;20036;-73
2023/08/22 06:54:08;;;;;;;20.50;9.68;;;;;;;;;;5053544;28;20120;-73
2023/08/22 06:56:34;;;;;;;20.52;9.52;;;19.50;99.90;;;;;;5091482;28;20483;-73
2023/08/22 06:58:59;;;;;;;20.75;9.27;;;19.60;99.90;;;;;;5075121;28;20047;-73
2023/08/22 07:01:25;;;;;;;17.75;7.95;;;19.70;99.90;;;;;;5078334;28;20048;-78
2023/08/22 07:03:51;;;;;;;12.45;7.45;;;;;;;;;;5072326;28;20075;-79
2023/08/22 07:06:17;;;;;;;20.65;10.13;;;19.80;99.90;;;;;;5081980;28;20043;-73
2023/08/22 07:08:43;;;;;;;19.85;8.98;;;;;;;;;;5064508;28;20393;-73
2023/08/22 07:11:09;;;;;;;16.23;8.27;;;18.10;99.90;;;;;;5080763;28;20035;-73
2023/08/22 07:13:35;;;;;;;14.90;8.88;;;19.00;99.90;;;;;;5088221;28;20373;-73
2023/08/22 07:16:01;;;;;;;22.13;8.85;;;;;;;;;;5069328;28;20430;-73
2023/08/22 07:18:28;;;;;;;20.02;8.40;;;18.90;99.90;;;;;;5069193;28;20055;-73
2023/08/22 07:20:54;;;;;;;16.17;6.85;;;19.80;99.90;;;;;;5085690;28;20050;-73
2023/08/22 07:23:20;;;;;;;19.52;9.38;;;19.80;99.90;;;;;;5069756;28;20127;-72
2023/08/22 07:25:50;;;;;;;14.07;8.50;;;19.00;99.90;;;;;;5092429;28;20071;-74
2023/08/22 07:28:17;;;;;;;21.88;9.05;;;19.40;99.90;;;;;;5085076;28;20047;-74
2023/08/22 07:30:47;;;;;;;14.50;8.38;;;19.00;99.90;;;;;;5073788;27;20062;-74
2023/08/22 07:33:13;;;;;;;15.93;8.68;;;19.30;99.90;;;;;;5090222;28;20068;-74
2023/08/22 07:35:40;;;;;;;18.80;9.00;;;19.10;99.90;;;;;;5079856;28;20059;-74
2023/08/22 07:38:06;;;;;;;21.23;9.38;;;18.60;99.90;;;;;;5066203;28;20137;-79
2023/08/22 07:40:33;;;;;;;17.23;8.52;;;;;;;;;;5082916;28;20119;-74
2023/08/22 07:43:03;;;;;;;16.23;8.02;;;19.50;99.90;;;;;;5057822;28;20067;-74
2023/08/22 07:45:35;;;;;;;18.42;9.07;;;19.70;99.90;;;;;;5058590;28;20502;-74
2023/08/22 07:48:01;;;;;;;20.00;8.50;;;18.30;99.90;;;;;;5074364;28;20044;-74
2023/08/22 07:50:27;;;;;;;19.65;8.85;;;;;;;;;;5074312;28;20039;-74
2023/08/22 07:52:53;;;;;;;18.33;8.95;;;;;;;;;;5075564;28;20392;-77
2023/08/22 07:55:19;;;;;;;16.58;9.13;;;;;;;;;;5075757;28;20048;-77
2023/08/22 07:57:45;;;;;;;21.30;9.88;;;19.40;99.90;;;;;;5075340;28;20048;-77
2023/08/22 08:00:11;;;;;;;22.98;10.90;;;20.40;99.90;;;;;;5075191;28;20052;-77
2023/08/22 08:02:38;;;;;;;19.58;10.40;;;20.60;99.90;;;;;;5058541;28;20556;-77
2023/08/22 08:05:05;;;;;;;20.20;10.10;;;19.60;99.90;;;;;;5075229;28;20047;-77
2023/08/22 08:07:31;;;;;;;20.10;10.23;;;19.70;99.90;;;;;;5041882;28;20044;-77
2023/08/22 08:09:56;;;;;;;19.65;10.15;;;18.90;99.90;;;;;;5075182;28;20036;-77
2023/08/22 08:12:22;;;;;;;19.10;10.57;;;18.90;99.90;;;;;;5075382;28;20142;-77
2023/08/22 08:14:48;;;;;;;19.85;9.95;;;;;;;;;;5075161;28;20470;-74
2023/08/22 08:17:17;;;;;;;20.75;9.32;;;20.70;99.90;;;;;;5058614;28;20044;-74
2023/08/22 08:19:43;;;;;;;20.90;9.90;;;19.60;99.90;;;;;;5058208;28;20229;-75
2023/08/22 08:22:09;;;;;;;19.45;10.00;;;20.80;99.90;;;;;;5074913;28;20044;-75
2023/08/22 08:24:35;;;;;;;24.95;10.40;;;;;;;;;;5058105;28;20044;-74
2023/08/22 08:27:01;;;;;;;22.20;10.85;;;19.20;99.90;;;;;;5058171;28;20043;-74
2023/08/22 08:29:27;;;;;;;21.40;10.20;;;;;;;;;;5074773;28;20058;-74
2023/08/22 08:31:55;;;;;;;21.00;10.38;;;20.50;99.90;;;;;;5075089;28;20066;-74
2023/08/22 08:34:22;;;;;;;21.20;10.23;;;;;;;;;;5058092;28;20043;-74
2023/08/22 08:36:49;;;;;;;27.95;11.32;;;20.00;99.90;;;;;;5058024;28;20233;-74
2023/08/22 08:39:15;;;;;;;22.92;10.32;;;20.20;99.90;;;;;;5074953;28;20365;-77
2023/08/22 08:42:08;;;;;;;21.77;11.80;;;20.00;99.90;;;;;;5041812;28;20396;-77
2023/08/22 08:44:37;;;;;;;25.40;11.77;;;;;;;;;;5040696;28;20048;-77
2023/08/22 08:47:03;;;;;;;24.38;11.43;;;;;;;;;;5070151;28;20636;-78
2023/08/22 08:49:34;;;;;;;23.55;12.68;;;20.10;99.90;;;;;;5077949;28;20039;-77
2023/08/22 08:52:05;;;;;;;23.15;11.15;;;19.00;99.90;;;;;;5078693;28;20040;-75
2023/08/22 08:54:32;;;;;;;26.52;12.63;;;19.60;99.90;;;;;;5097129;28;20397;-74
2023/08/22 08:56:59;;;;;;;39.45;14.02;;;;;;;;;;5098997;28;20048;-77
2023/08/22 08:59:25;;;;;;;26.55;12.50;;;19.90;99.90;;;;;;5081807;28;20112;-77
2023/08/22 09:01:53;;;;;;;23.48;11.68;;;21.10;99.90;;;;;;5098828;28;20479;-77
2023/08/22 09:04:19;;;;;;;33.65;13.75;;;20.40;99.90;;;;;;5099084;28;20399;-77
2023/08/22 09:06:46;;;;;;;26.50;11.98;;;20.50;99.90;;;;;;5101141;28;20036;-77
2023/08/22 09:09:13;;;;;;;23.85;12.30;;;20.10;99.90;;;;;;5099864;28;20539;-77
2023/08/22 09:11:47;;;;;;;24.67;12.52;;;19.90;99.90;;;;;;5099126;28;20118;-77
2023/08/22 09:14:19;;;;;;;29.50;10.93;;;21.00;99.90;;;;;;5098821;28;20043;-77
2023/08/22 09:16:46;;;;;;;26.58;9.52;;;21.50;99.90;;;;;;5099046;28;20395;-77
2023/08/22 09:19:12;;;;;;;24.25;10.90;;;21.80;99.90;;;;;;5082028;28;20039;-77
2023/08/22 09:21:37;;;;;;;23.33;10.38;;;20.40;99.90;;;;;;5098532;28;20046;-77
2023/08/22 09:24:08;;;;;;;22.73;10.20;;;21.40;99.90;;;;;;5098685;28;20039;-77
2023/08/22 09:26:35;;;;;;;23.90;11.02;;;21.40;99.90;;;;;;5081527;28;20395;-77
2023/08/22 09:29:07;;;;;;;27.40;9.88;;;21.20;99.90;;;;;;5098603;28;20039;-77
2023/08/22 09:31:36;;;;;;;20.17;8.65;;;21.70;99.90;;;;;;5064839;28;20480;-77
2023/08/22 09:34:12;;;;;;;21.52;9.05;;;22.30;99.90;;;;;;5098387;28;20032;-77
2023/08/22 09:36:45;;;;;;;18.75;9.23;;;21.60;99.90;;;;;;5081873;28;20360;-77
2023/08/22 09:39:15;;;;;;;23.10;10.15;;;21.80;99.90;;;;;;5081733;28;20047;-77
2023/08/22 09:41:41;;;;;;;23.77;10.68;;;22.60;99.90;;;;;;5081344;28;20044;-77
2023/08/22 09:44:09;;;;;;;36.22;10.45;;;22.80;99.90;;;;;;5078738;28;20043;-77
2023/08/22 09:46:40;;;;;;;23.77;9.75;;;22.80;99.90;;;;;;5077775;28;20040;-77
2023/08/22 09:49:09;;;;;;;21.70;10.10;;;22.30;99.90;;;;;;5077795;28;20488;-77
2023/08/22 09:51:36;;;;;;;19.42;9.68;;;22.80;99.90;;;;;;5061045;28;20044;-77
2023/08/22 09:54:05;;;;;;;23.05;9.93;;;22.40;99.90;;;;;;5077699;28;20036;-77
2023/08/22 09:56:31;;;;;;;22.55;10.15;;;23.20;99.90;;;;;;5077778;28;20051;-77
2023/08/22 09:59:00;;;;;;;23.55;11.25;;;22.20;99.90;;;;;;5077827;28;20506;-78
2023/08/22 10:01:33;;;;;;;17.48;9.68;;;23.00;99.90;;;;;;5077659;28;20506;-78
2023/08/22 10:04:04;;;;;;;16.75;9.60;;;23.10;99.90;;;;;;5077470;28;20050;-77
2023/08/22 10:06:35;;;;;;;31.42;10.30;;;22.20;99.90;;;;;;5076824;28;20051;-75
2023/08/22 10:09:10;;;;;;;22.05;10.35;;;23.50;99.90;;;;;;5077436;28;20036;-75
2023/08/22 10:11:41;;;;;;;14.05;8.80;;;23.00;99.90;;;;;;5077331;28;20484;-75
2023/08/22 10:14:12;;;;;;;16.73;8.87;;;22.80;99.90;;;;;;5077461;28;20072;-75
2023/08/22 10:16:38;;;;;;;19.63;9.32;;;23.00;99.90;;;;;;5077541;28;20039;-77
2023/08/22 10:19:04;;;;;;;18.48;8.70;;;23.80;99.90;;;;;;5077665;28;20043;-77
2023/08/22 10:22:06;;;;;;;19.30;8.98;;;23.40;99.90;;;;;;5060458;28;20040;-77
2023/08/22 10:24:33;;;;;;;20.52;9.32;;;23.30;99.90;;;;;;5025680;28;20492;-77
2023/08/22 10:27:04;;;;;;;22.65;9.60;;;;;;;;;;5077043;28;20048;-77
2023/08/22 10:29:35;;;;;;;17.35;8.38;;;23.80;99.90;;;;;;5077273;28;20085;-77
2023/08/22 10:32:01;;;;;;;18.17;9.20;;;23.90;99.90;;;;;;5060706;28;20048;-77
2023/08/22 10:34:40;;;;;;;12.73;5.75;;;23.40;98.60;;;;;;5077391;28;20392;-77
2023/08/22 10:37:12;;;;;;;15.20;5.75;;;23.60;97.60;;;;;;5077170;28;20086;-77
2023/08/22 10:39:42;;;;;;;11.52;4.97;;;23.40;97.30;;;;;;5060247;28;20075;-77
2023/08/22 10:42:13;;;;;;;11.32;5.78;;;23.00;99.90;;;;;;5077002;28;20097;-77
2023/08/22 10:44:40;;;;;;;15.15;6.40;;;24.00;98.10;;;;;;5060225;28;20099;-77
2023/08/22 10:47:15;;;;;;;15.55;5.70;;;24.50;99.90;;;;;;5060270;28;20041;-77
2023/08/22 10:49:42;;;;;;;19.48;6.53;;;24.60;99.90;;;;;;5094977;28;20455;-77
2023/08/22 10:52:11;;;;;;;12.63;6.30;;;24.10;99.90;;;;;;5060095;28;20046;-77
2023/08/22 10:54:57;;;;;;;12.23;5.90;;;23.80;96.10;;;;;;5060040;28;20122;-77
2023/08/22 10:57:23;;;;;;;16.00;6.10;;;24.10;99.90;;;;;;5076943;28;20040;-77
2023/08/22 11:00:12;;;;;;;11.13;5.25;;;23.80;96.40;;;;;;5076536;28;20519;-77
2023/08/22 11:02:40;;;;;;;20.08;7.38;;;24.30;98.30;;;;;;5076345;28;20407;-75
2023/08/22 11:05:11;;;;;;;16.77;7.72;;;23.60;99.90;;;;;;5076816;28;20518;-75
2023/08/22 11:07:42;;;;;;;16.83;7.93;;;24.30;96.80;;;;;;5076778;28;20048;-75
2023/08/22 11:10:21;;;;;;;21.08;7.47;;;23.60;99.90;;;;;;5059780;28;20428;-75
2023/08/22 11:12:53;;;;;;;14.50;7.68;;;24.30;98.50;;;;;;5066160;28;20409;-75
2023/08/22 11:15:19;;;;;;;20.63;7.68;;;23.60;99.80;;;;;;5096738;28;20123;-75
2023/08/22 11:17:50;;;;;;;13.55;6.30;;;24.20;99.90;;;;;;5078479;28;20040;-75
2023/08/22 11:20:18;;;;;;;12.57;6.47;;;24.20;96.80;;;;;;5079437;28;20040;-76
2023/08/22 11:22:44;;;;;;;19.40;8.20;;;24.20;99.90;;;;;;5096285;28;20281;-74
2023/08/22 11:25:12;;;;;;;18.65;8.38;;;24.60;99.80;;;;;;5096515;28;20440;-75
2023/08/22 11:27:39;;;;;;;19.38;8.60;;;25.20;99.40;;;;;;5079211;28;20472;-76
2023/08/22 11:30:06;;;;;;;18.10;8.60;;;25.20;99.50;;;;;;5096099;28;20507;-75
2023/08/22 11:32:35;;;;;;;22.42;9.55;;;24.50;95.40;;;;;;5095942;28;20479;-75
2023/08/22 11:35:05;;;;;;;19.13;8.70;;;23.90;99.30;;;;;;5096378;28;20383;-75
2023/08/22 11:37:39;;;;;;;19.27;8.10;;;24.10;94.70;;;;;;5096056;28;20048;-75
2023/08/22 11:40:08;;;;;;;15.07;8.02;;;24.10;95.90;;;;;;5096358;28;20118;-75
2023/08/22 11:42:35;;;;;;;18.30;8.93;;;24.90;99.80;;;;;;5079424;28;20039;-75
2023/08/22 11:45:08;;;;;;;17.58;7.65;;;24.60;99.50;;;;;;5079096;28;20164;-75
2023/08/22 11:47:42;;;;;;;13.35;7.65;;;24.30;99.40;;;;;;5079334;28;20092;-75
2023/08/22 11:50:15;;;;;;;16.58;7.63;;;24.80;98.00;;;;;;5095843;28;20039;-75
2023/08/22 11:52:41;;;;;;;18.83;8.40;;;25.00;98.90;;;;;;5079191;28;20092;-75
2023/08/22 11:55:08;;;;;;;20.58;7.22;;;24.40;98.40;;;;;;5078948;28;20044;-75
2023/08/22 11:57:36;;;;;;;13.70;6.93;;;25.00;96.50;;;;;;5078735;28;20047;-75
2023/08/22 12:00:06;;;;;;;12.40;7.35;;;24.60;94.30;;;;;;5095490;28;20112;-75
2023/08/22 12:02:32;;;;;;;15.38;6.90;;;;;;;;;;5079088;28;20047;-75
2023/08/22 12:04:57;;;;;;;12.85;6.55;;;25.20;98.30;;;;;;5095632;28;20048;-75
2023/08/22 12:07:24;;;;;;;11.68;5.50;;;;;;;;;;5079459;28;20049;-75
2023/08/22 12:10:07;;;;;;;14.88;5.80;;;25.30;93.10;;;;;;5078951;28;20027;-75
2023/08/22 12:12:33;;;;;;;15.93;5.75;;;25.20;97.60;;;;;;5095543;28;20395;-75
2023/08/22 12:14:59;;;;;;;15.82;5.80;;;25.90;97.50;;;;;;5095621;28;20042;-75
2023/08/22 12:17:25;;;;;;;15.80;6.55;;;25.00;97.00;;;;;;5095384;28;20135;-76
2023/08/22 12:19:51;;;;;;;20.42;7.10;;;25.90;97.20;;;;;;5095725;28;20487;-75
2023/08/22 12:22:18;;;;;;;18.13;7.85;;;;;;;;;;5062015;28;20050;-76
2023/08/22 12:24:44;;;;;;;15.48;7.43;;;26.00;94.30;;;;;;5095224;28;20392;-75
2023/08/22 12:27:11;;;;;;;15.82;7.03;;;24.60;96.60;;;;;;5095285;28;20127;-75
2023/08/22 12:29:37;;;;;;;16.13;6.68;;;24.90;96.90;;;;;;5094935;28;20035;-75
2023/08/22 12:32:04;;;;;;;18.40;7.03;;;25.50;96.90;;;;;;5078366;28;20072;-75
2023/08/22 12:34:30;;;;;;;14.35;6.47;;;25.80;97.20;;;;;;5061564;28;20040;-75
2023/08/22 12:36:56;;;;;;;19.95;8.80;;;26.00;96.90;;;;;;5095008;28;20079;-75
2023/08/22 12:39:22;;;;;;;16.33;6.70;;;24.60;96.50;;;;;;5094982;28;20081;-75
2023/08/22 12:41:48;;;;;;;18.90;6.72;;;;;;;;;;5078407;28;20039;-75
2023/08/22 12:44:14;;;;;;;16.85;7.07;;;;;;;;;;5078581;28;20075;-75
2023/08/22 12:46:41;;;;;;;21.00;8.02;;;25.70;97.30;;;;;;5094981;28;20047;-75
2023/08/22 12:49:07;;;;;;;18.50;8.07;;;;;;;;;;5095097;28;20040;-76
2023/08/22 12:51:33;;;;;;;20.55;7.45;;;;;;;;;;5079450;28;20475;-76
2023/08/22 12:53:59;;;;;;;18.80;8.00;;;24.90;96.80;;;;;;5098704;28;20058;-75
2023/08/22 12:56:27;;;;;;;20.48;9.05;;;;;;;;;;5094980;28;20440;-76
2023/08/22 12:58:54;;;;;;;17.33;9.43;;;25.00;96.30;;;;;;5094606;28;20063;-75
2023/08/22 13:01:20;;;;;;;18.58;9.27;;;;;;;;;;5094782;28;20092;-76
2023/08/22 13:03:46;;;;;;;19.08;7.60;;;25.70;96.80;;;;;;5094919;28;20054;-75